Altenwald, Pennsylvania
Current Conditions -  °F | °C
As of 6:53 AM on Thursday 27 Nov 2014 (Local Time) from KRYT Reporting Station
Overcast Overcast  
Wind Chill: 34°   Ceiling: 4600
Heat Index: 34°   Visibility: 10mi
Dew Point: 28°   Wind: 0mph
Humidity: 79%   Direction: NA
Pressure: 29.98"   Gusts: NA
Location:  39.7777°N, 77.5693°W
Report Text: KRYT 271153Z AUTO 00000KT 10SM BKN046 OVC055 01/M02 A2998 RMK AO2 SLP167 70082 T00111022 10011 21006 51010 $
Loading
Personal Weather Stations






























Interactive Weather Map New forecast layout! Learn more

10-Day Weather Forecast

Advertisements
Track Severe Weather on mobile